sensor_id;sensor_type;location;lat;lon;timestamp;temperature;humidity
16392;DHT22;8305;-33.882;151.134;2023-04-25T00:02:09;21.40;99.90
16392;DHT22;8305;-33.882;151.134;2023-04-25T00:04:43;21.50;99.90
16392;DHT22;8305;-33.882;151.134;2023-04-25T00:07:14;21.60;99.90
16392;DHT22;8305;-33.882;151.134;2023-04-25T00:09:45;21.70;99.90
16392;DHT22;8305;-33.882;151.134;2023-04-25T00:12:16;21.80;99.90
16392;DHT22;8305;-33.882;151.134;2023-04-25T00:14:47;21.80;99.90
16392;DHT22;8305;-33.882;151.134;2023-04-25T00:17:19;21.90;99.90
16392;DHT22;8305;-33.882;151.134;2023-04-25T00:19:52;22.00;99.90
16392;DHT22;8305;-33.882;151.134;2023-04-25T00:22:23;22.00;99.90
16392;DHT22;8305;-33.882;151.134;2023-04-25T00:24:54;22.10;99.90
16392;DHT22;8305;-33.882;151.134;2023-04-25T00:27:28;22.20;99.90
16392;DHT22;8305;-33.882;151.134;2023-04-25T00:29:59;22.20;99.90
16392;DHT22;8305;-33.882;151.134;2023-04-25T00:32:30;22.30;99.90
16392;DHT22;8305;-33.882;151.134;2023-04-25T00:35:03;22.40;99.90
16392;DHT22;8305;-33.882;151.134;2023-04-25T00:37:34;22.40;99.90
16392;DHT22;8305;-33.882;151.134;2023-04-25T00:40:07;22.50;99.90
16392;DHT22;8305;-33.882;151.134;2023-04-25T00:42:39;22.50;99.90
16392;DHT22;8305;-33.882;151.134;2023-04-25T00:45:12;22.50;99.90
16392;DHT22;8305;-33.882;151.134;2023-04-25T00:47:44;22.60;99.90
16392;DHT22;8305;-33.882;151.134;2023-04-25T00:50:17;22.80;99.90
16392;DHT22;8305;-33.882;151.134;2023-04-25T00:52:48;22.80;99.90
16392;DHT22;8305;-33.882;151.134;2023-04-25T00:55:20;22.80;99.90
16392;DHT22;8305;-33.882;151.134;2023-04-25T00:57:51;22.80;99.90
16392;DHT22;8305;-33.882;151.134;2023-04-25T01:00:22;23.00;99.90
16392;DHT22;8305;-33.882;151.134;2023-04-25T01:02:54;23.10;99.90
16392;DHT22;8305;-33.882;151.134;2023-04-25T01:05:27;23.30;99.90
16392;DHT22;8305;-33.882;151.134;2023-04-25T01:07:58;23.20;99.90
16392;DHT22;8305;-33.882;151.134;2023-04-25T01:10:29;22.90;99.90
16392;DHT22;8305;-33.882;151.134;2023-04-25T01:13:00;22.70;99.90
16392;DHT22;8305;-33.882;151.134;2023-04-25T01:15:32;22.70;99.90
16392;DHT22;8305;-33.882;151.134;2023-04-25T01:18:04;22.90;99.90
16392;DHT22;8305;-33.882;151.134;2023-04-25T01:20:38;22.90;99.90
16392;DHT22;8305;-33.882;151.134;2023-04-25T01:23:12;22.90;99.90
16392;DHT22;8305;-33.882;151.134;2023-04-25T01:25:44;22.90;99.90
16392;DHT22;8305;-33.882;151.134;2023-04-25T01:28:16;23.00;99.90
16392;DHT22;8305;-33.882;151.134;2023-04-25T01:30:48;23.00;99.90
16392;DHT22;8305;-33.882;151.134;2023-04-25T01:33:21;23.00;99.90
16392;DHT22;8305;-33.882;151.134;2023-04-25T01:35:52;23.00;99.90
16392;DHT22;8305;-33.882;151.134;2023-04-25T01:38:25;22.90;99.90
16392;DHT22;8305;-33.882;151.134;2023-04-25T01:40:59;22.80;99.90
16392;DHT22;8305;-33.882;151.134;2023-04-25T01:43:30;22.60;99.90
16392;DHT22;8305;-33.882;151.134;2023-04-25T01:46:01;22.50;99.90
16392;DHT22;8305;-33.882;151.134;2023-04-25T01:48:33;22.60;99.90
16392;DHT22;8305;-33.882;151.134;2023-04-25T01:51:04;22.60;99.90
16392;DHT22;8305;-33.882;151.134;2023-04-25T01:53:37;22.80;99.90
16392;DHT22;8305;-33.882;151.134;2023-04-25T01:56:08;22.90;99.90
16392;DHT22;8305;-33.882;151.134;2023-04-25T01:58:40;23.10;99.90
16392;DHT22;8305;-33.882;151.134;2023-04-25T02:01:11;23.30;99.90
16392;DHT22;8305;-33.882;151.134;2023-04-25T02:03:42;23.40;99.90
16392;DHT22;8305;-33.882;151.134;2023-04-25T02:06:13;23.60;99.90
16392;DHT22;8305;-33.882;151.134;2023-04-25T02:08:46;23.60;99.90
16392;DHT22;8305;-33.882;151.134;2023-04-25T02:11:17;23.50;99.90
16392;DHT22;8305;-33.882;151.134;2023-04-25T02:13:48;23.30;99.90
16392;DHT22;8305;-33.882;151.134;2023-04-25T02:16:19;23.20;99.90
16392;DHT22;8305;-33.882;151.134;2023-04-25T02:18:50;23.10;99.90
16392;DHT22;8305;-33.882;151.134;2023-04-25T02:21:22;23.30;99.90
16392;DHT22;8305;-33.882;151.134;2023-04-25T02:23:56;23.40;99.90
16392;DHT22;8305;-33.882;151.134;2023-04-25T02:26:27;23.50;99.90
16392;DHT22;8305;-33.882;151.134;2023-04-25T02:28:59;23.70;99.90
16392;DHT22;8305;-33.882;151.134;2023-04-25T02:31:30;23.60;99.90
16392;DHT22;8305;-33.882;151.134;2023-04-25T02:34:01;23.40;99.90
16392;DHT22;8305;-33.882;151.134;2023-04-25T02:36:32;23.20;99.90
16392;DHT22;8305;-33.882;151.134;2023-04-25T02:39:05;23.20;99.90
16392;DHT22;8305;-33.882;151.134;2023-04-25T02:41:36;23.50;99.90
16392;DHT22;8305;-33.882;151.134;2023-04-25T02:44:07;23.70;99.90
16392;DHT22;8305;-33.882;151.134;2023-04-25T02:46:38;23.90;99.90
16392;DHT22;8305;-33.882;151.134;2023-04-25T02:49:09;24.00;99.90
16392;DHT22;8305;-33.882;151.134;2023-04-25T02:51:40;24.10;99.90
16392;DHT22;8305;-33.882;151.134;2023-04-25T02:54:13;24.30;99.90
16392;DHT22;8305;-33.882;151.134;2023-04-25T02:56:44;24.20;99.90
16392;DHT22;8305;-33.882;151.134;2023-04-25T02:59:15;24.20;99.90
16392;DHT22;8305;-33.882;151.134;2023-04-25T03:01:46;24.30;99.90
16392;DHT22;8305;-33.882;151.134;2023-04-25T03:04:18;24.30;99.90
16392;DHT22;8305;-33.882;151.134;2023-04-25T03:06:49;24.30;99.90
16392;DHT22;8305;-33.882;151.134;2023-04-25T03:09:22;24.40;99.90
16392;DHT22;8305;-33.882;151.134;2023-04-25T03:11:54;24.40;99.90
16392;DHT22;8305;-33.882;151.134;2023-04-25T03:14:25;24.30;99.90
16392;DHT22;8305;-33.882;151.134;2023-04-25T03:16:56;24.30;99.90
16392;DHT22;8305;-33.882;151.134;2023-04-25T03:19:27;24.20;99.90
16392;DHT22;8305;-33.882;151.134;2023-04-25T03:21:58;24.10;99.90
16392;DHT22;8305;-33.882;151.134;2023-04-25T03:24:31;24.20;99.90
16392;DHT22;8305;-33.882;151.134;2023-04-25T03:27:03;24.10;99.90
16392;DHT22;8305;-33.882;151.134;2023-04-25T03:29:34;23.80;99.90
16392;DHT22;8305;-33.882;151.134;2023-04-25T03:32:05;23.80;99.90
16392;DHT22;8305;-33.882;151.134;2023-04-25T03:34:36;23.80;99.90
16392;DHT22;8305;-33.882;151.134;2023-04-25T03:37:07;23.80;99.90
16392;DHT22;8305;-33.882;151.134;2023-04-25T03:39:40;23.80;99.90
16392;DHT22;8305;-33.882;151.134;2023-04-25T03:42:11;23.80;99.90
16392;DHT22;8305;-33.882;151.134;2023-04-25T03:44:42;23.80;99.90
16392;DHT22;8305;-33.882;151.134;2023-04-25T03:47:13;23.80;99.90
16392;DHT22;8305;-33.882;151.134;2023-04-25T03:49:44;23.80;99.90
16392;DHT22;8305;-33.882;151.134;2023-04-25T03:52:17;23.80;99.90
16392;DHT22;8305;-33.882;151.134;2023-04-25T03:54:50;23.90;99.90
16392;DHT22;8305;-33.882;151.134;2023-04-25T03:57:21;24.00;99.90
16392;DHT22;8305;-33.882;151.134;2023-04-25T03:59:52;24.00;99.90
16392;DHT22;8305;-33.882;151.134;2023-04-25T04:02:23;24.00;99.90
16392;DHT22;8305;-33.882;151.134;2023-04-25T04:04:54;24.00;99.90
16392;DHT22;8305;-33.882;151.134;2023-04-25T04:07:26;23.90;99.90
16392;DHT22;8305;-33.882;151.134;2023-04-25T04:09:59;23.90;99.90
16392;DHT22;8305;-33.882;151.134;2023-04-25T04:12:30;23.90;99.90
16392;DHT22;8305;-33.882;151.134;2023-04-25T04:15:01;23.90;99.90
16392;DHT22;8305;-33.882;151.134;2023-04-25T04:17:33;23.80;99.90
16392;DHT22;8305;-33.882;151.134;2023-04-25T04:20:05;23.80;99.90
16392;DHT22;8305;-33.882;151.134;2023-04-25T04:22:37;23.70;99.90
16392;DHT22;8305;-33.882;151.134;2023-04-25T04:25:10;23.80;99.90
16392;DHT22;8305;-33.882;151.134;2023-04-25T04:27:41;23.80;99.90
16392;DHT22;8305;-33.882;151.134;2023-04-25T04:30:13;23.80;99.90
16392;DHT22;8305;-33.882;151.134;2023-04-25T04:32:44;23.80;99.90
16392;DHT22;8305;-33.882;151.134;2023-04-25T04:35:16;23.70;99.90
16392;DHT22;8305;-33.882;151.134;2023-04-25T04:37:47;23.60;99.90
16392;DHT22;8305;-33.882;151.134;2023-04-25T04:40:20;23.60;99.90
16392;DHT22;8305;-33.882;151.134;2023-04-25T04:42:51;23.40;99.90
16392;DHT22;8305;-33.882;151.134;2023-04-25T04:45:24;23.40;99.90
16392;DHT22;8305;-33.882;151.134;2023-04-25T04:47:55;23.40;99.90
16392;DHT22;8305;-33.882;151.134;2023-04-25T04:50:27;23.60;99.90
16392;DHT22;8305;-33.882;151.134;2023-04-25T04:53:03;23.50;99.90
16392;DHT22;8305;-33.882;151.134;2023-04-25T04:55:36;23.50;99.90
16392;DHT22;8305;-33.882;151.134;2023-04-25T04:58:09;23.50;99.90
16392;DHT22;8305;-33.882;151.134;2023-04-25T05:00:40;23.50;99.90
16392;DHT22;8305;-33.882;151.134;2023-04-25T05:03:12;23.40;99.90
16392;DHT22;8305;-33.882;151.134;2023-04-25T05:05:45;23.40;99.90
16392;DHT22;8305;-33.882;151.134;2023-04-25T05:08:16;23.40;99.90
16392;DHT22;8305;-33.882;151.134;2023-04-25T05:10:49;23.40;99.90
16392;DHT22;8305;-33.882;151.134;2023-04-25T05:13:20;23.40;99.90
16392;DHT22;8305;-33.882;151.134;2023-04-25T05:15:51;23.30;99.90
16392;DHT22;8305;-33.882;151.134;2023-04-25T05:18:22;23.10;99.90
16392;DHT22;8305;-33.882;151.134;2023-04-25T05:20:53;23.10;99.90
16392;DHT22;8305;-33.882;151.134;2023-04-25T05:23:24;23.00;99.90
16392;DHT22;8305;-33.882;151.134;2023-04-25T05:26:03;23.00;99.90
16392;DHT22;8305;-33.882;151.134;2023-04-25T05:28:34;23.00;99.90
16392;DHT22;8305;-33.882;151.134;2023-04-25T05:31:05;23.00;99.90
16392;DHT22;8305;-33.882;151.134;2023-04-25T05:33:36;23.00;99.90
16392;DHT22;8305;-33.882;151.134;2023-04-25T05:36:08;23.10;99.90
16392;DHT22;8305;-33.882;151.134;2023-04-25T05:38:39;23.00;99.90
16392;DHT22;8305;-33.882;151.134;2023-04-25T05:41:12;23.00;99.90
16392;DHT22;8305;-33.882;151.134;2023-04-25T05:43:43;23.00;99.90
16392;DHT22;8305;-33.882;151.134;2023-04-25T05:46:17;22.80;99.90
16392;DHT22;8305;-33.882;151.134;2023-04-25T05:48:48;22.80;99.90
16392;DHT22;8305;-33.882;151.134;2023-04-25T05:51:19;22.70;99.90
16392;DHT22;8305;-33.882;151.134;2023-04-25T05:53:50;22.60;99.90
16392;DHT22;8305;-33.882;151.134;2023-04-25T05:56:23;22.60;99.90
16392;DHT22;8305;-33.882;151.134;2023-04-25T05:58:54;22.60;99.90
16392;DHT22;8305;-33.882;151.134;2023-04-25T06:01:25;22.60;99.90
16392;DHT22;8305;-33.882;151.134;2023-04-25T06:03:56;22.60;99.90
16392;DHT22;8305;-33.882;151.134;2023-04-25T06:06:27;22.50;99.90
16392;DHT22;8305;-33.882;151.134;2023-04-25T06:08:58;22.30;99.90
16392;DHT22;8305;-33.882;151.134;2023-04-25T06:11:31;22.20;99.90
16392;DHT22;8305;-33.882;151.134;2023-04-25T06:14:02;22.20;99.90
16392;DHT22;8305;-33.882;151.134;2023-04-25T06:16:34;22.10;99.90
16392;DHT22;8305;-33.882;151.134;2023-04-25T06:19:05;22.00;99.90
16392;DHT22;8305;-33.882;151.134;2023-04-25T06:21:36;21.90;99.90
16392;DHT22;8305;-33.882;151.134;2023-04-25T06:24:07;21.90;99.90
16392;DHT22;8305;-33.882;151.134;2023-04-25T06:26:40;21.90;99.90
16392;DHT22;8305;-33.882;151.134;2023-04-25T06:29:11;21.80;99.90
16392;DHT22;8305;-33.882;151.134;2023-04-25T06:31:42;21.80;99.90
16392;DHT22;8305;-33.882;151.134;2023-04-25T06:34:13;21.70;99.90
16392;DHT22;8305;-33.882;151.134;2023-04-25T06:36:45;21.60;99.90
16392;DHT22;8305;-33.882;151.134;2023-04-25T06:39:16;21.60;99.90
16392;DHT22;8305;-33.882;151.134;2023-04-25T06:41:49;21.60;99.90
16392;DHT22;8305;-33.882;151.134;2023-04-25T06:44:21;21.60;99.90
16392;DHT22;8305;-33.882;151.134;2023-04-25T06:46:54;21.50;99.90
16392;DHT22;8305;-33.882;151.134;2023-04-25T06:49:25;21.40;99.90
16392;DHT22;8305;-33.882;151.134;2023-04-25T06:51:56;21.30;99.90
16392;DHT22;8305;-33.882;151.134;2023-04-25T06:54:27;21.30;99.90
16392;DHT22;8305;-33.882;151.134;2023-04-25T06:57:00;21.20;99.90
16392;DHT22;8305;-33.882;151.134;2023-04-25T06:59:31;21.10;99.90
16392;DHT22;8305;-33.882;151.134;2023-04-25T07:02:02;21.10;99.90
16392;DHT22;8305;-33.882;151.134;2023-04-25T07:04:34;21.10;99.90
16392;DHT22;8305;-33.882;151.134;2023-04-25T07:07:08;21.00;99.90
16392;DHT22;8305;-33.882;151.134;2023-04-25T07:09:39;20.90;99.90
16392;DHT22;8305;-33.882;151.134;2023-04-25T07:12:11;20.90;99.90
16392;DHT22;8305;-33.882;151.134;2023-04-25T07:14:42;20.80;99.90
16392;DHT22;8305;-33.882;151.134;2023-04-25T07:17:13;20.80;99.90
16392;DHT22;8305;-33.882;151.134;2023-04-25T07:19:43;20.70;99.90
16392;DHT22;8305;-33.882;151.134;2023-04-25T07:22:14;20.70;99.90
16392;DHT22;8305;-33.882;151.134;2023-04-25T07:24:45;20.60;99.90
16392;DHT22;8305;-33.882;151.134;2023-04-25T07:27:18;20.60;99.90
16392;DHT22;8305;-33.882;151.134;2023-04-25T07:29:49;20.60;99.90
16392;DHT22;8305;-33.882;151.134;2023-04-25T07:32:20;20.50;99.90
16392;DHT22;8305;-33.882;151.134;2023-04-25T07:34:50;20.50;99.90
16392;DHT22;8305;-33.882;151.134;2023-04-25T07:37:21;20.40;99.90
16392;DHT22;8305;-33.882;151.134;2023-04-25T07:39:53;20.40;99.90
16392;DHT22;8305;-33.882;151.134;2023-04-25T07:42:25;20.40;99.90
16392;DHT22;8305;-33.882;151.134;2023-04-25T07:44:56;20.30;99.90
16392;DHT22;8305;-33.882;151.134;2023-04-25T07:47:26;20.30;99.90
16392;DHT22;8305;-33.882;151.134;2023-04-25T07:49:58;20.30;99.90
16392;DHT22;8305;-33.882;151.134;2023-04-25T07:52:28;20.20;99.90
16392;DHT22;8305;-33.882;151.134;2023-04-25T07:55:02;20.20;99.90
16392;DHT22;8305;-33.882;151.134;2023-04-25T07:57:37;20.20;99.90
16392;DHT22;8305;-33.882;151.134;2023-04-25T08:00:09;20.10;99.90
16392;DHT22;8305;-33.882;151.134;2023-04-25T08:02:40;20.10;99.90
16392;DHT22;8305;-33.882;151.134;2023-04-25T08:05:11;20.10;99.90
16392;DHT22;8305;-33.882;151.134;2023-04-25T08:07:44;20.10;99.90
16392;DHT22;8305;-33.882;151.134;2023-04-25T08:10:15;20.00;99.90
16392;DHT22;8305;-33.882;151.134;2023-04-25T08:12:47;20.00;99.90
16392;DHT22;8305;-33.882;151.134;2023-04-25T08:15:19;20.00;99.90
16392;DHT22;8305;-33.882;151.134;2023-04-25T08:17:50;20.00;99.90
16392;DHT22;8305;-33.882;151.134;2023-04-25T08:20:20;20.00;99.90
16392;DHT22;8305;-33.882;151.134;2023-04-25T08:22:51;20.00;99.90
16392;DHT22;8305;-33.882;151.134;2023-04-25T08:25:22;20.00;99.90
16392;DHT22;8305;-33.882;151.134;2023-04-25T08:27:56;20.00;99.90
16392;DHT22;8305;-33.882;151.134;2023-04-25T08:30:30;19.90;99.90
16392;DHT22;8305;-33.882;151.134;2023-04-25T08:33:01;19.90;99.90
16392;DHT22;8305;-33.882;151.134;2023-04-25T08:35:31;19.90;99.90
16392;DHT22;8305;-33.882;151.134;2023-04-25T08:38:03;19.80;99.90
16392;DHT22;8305;-33.882;151.134;2023-04-25T08:40:37;19.80;99.90
16392;DHT22;8305;-33.882;151.134;2023-04-25T08:43:10;19.80;99.90
16392;DHT22;8305;-33.882;151.134;2023-04-25T08:45:44;19.80;99.90
16392;DHT22;8305;-33.882;151.134;2023-04-25T08:48:15;19.80;99.90
16392;DHT22;8305;-33.882;151.134;2023-04-25T08:50:49;19.80;99.90
16392;DHT22;8305;-33.882;151.134;2023-04-25T08:53:26;19.70;99.90
16392;DHT22;8305;-33.882;151.134;2023-04-25T08:55:58;19.70;99.90
16392;DHT22;8305;-33.882;151.134;2023-04-25T08:58:31;19.70;99.90
16392;DHT22;8305;-33.882;151.134;2023-04-25T09:01:02;19.70;99.90
16392;DHT22;8305;-33.882;151.134;2023-04-25T09:03:36;19.60;99.90
16392;DHT22;8305;-33.882;151.134;2023-04-25T09:06:11;19.60;99.90
16392;DHT22;8305;-33.882;151.134;2023-04-25T09:08:43;19.60;99.90
16392;DHT22;8305;-33.882;151.134;2023-04-25T09:11:14;19.60;99.90
16392;DHT22;8305;-33.882;151.134;2023-04-25T09:13:47;19.50;99.90
16392;DHT22;8305;-33.882;151.134;2023-04-25T09:16:18;19.50;99.90
16392;DHT22;8305;-33.882;151.134;2023-04-25T09:18:51;19.50;99.90
16392;DHT22;8305;-33.882;151.134;2023-04-25T09:21:23;19.50;99.90
16392;DHT22;8305;-33.882;151.134;2023-04-25T09:23:54;19.40;99.90
16392;DHT22;8305;-33.882;151.134;2023-04-25T09:26:27;19.40;99.90
16392;DHT22;8305;-33.882;151.134;2023-04-25T09:29:06;19.40;99.90
16392;DHT22;8305;-33.882;151.134;2023-04-25T09:31:38;19.40;99.90
16392;DHT22;8305;-33.882;151.134;2023-04-25T09:34:09;19.40;99.90
16392;DHT22;8305;-33.882;151.134;2023-04-25T09:36:43;19.40;99.90
16392;DHT22;8305;-33.882;151.134;2023-04-25T09:39:14;19.30;99.90
16392;DHT22;8305;-33.882;151.134;2023-04-25T09:41:47;19.30;99.90
16392;DHT22;8305;-33.882;151.134;2023-04-25T09:44:24;19.20;99.90
16392;DHT22;8305;-33.882;151.134;2023-04-25T09:46:55;19.20;99.90
16392;DHT22;8305;-33.882;151.134;2023-04-25T09:49:27;19.20;99.90
16392;DHT22;8305;-33.882;151.134;2023-04-25T09:51:58;19.20;99.90
16392;DHT22;8305;-33.882;151.134;2023-04-25T09:54:28;19.10;99.90
16392;DHT22;8305;-33.882;151.134;2023-04-25T09:57:07;19.00;99.90
16392;DHT22;8305;-33.882;151.134;2023-04-25T09:59:49;19.10;99.90
16392;DHT22;8305;-33.882;151.134;2023-04-25T10:02:20;19.00;99.90
16392;DHT22;8305;-33.882;151.134;2023-04-25T10:04:51;19.00;99.90
16392;DHT22;8305;-33.882;151.134;2023-04-25T10:07:23;19.00;99.90
16392;DHT22;8305;-33.882;151.134;2023-04-25T10:09:58;18.90;99.90
16392;DHT22;8305;-33.882;151.134;2023-04-25T10:12:30;18.90;99.90
16392;DHT22;8305;-33.882;151.134;2023-04-25T10:15:04;18.80;99.90
16392;DHT22;8305;-33.882;151.134;2023-04-25T10:17:38;18.80;99.90
16392;DHT22;8305;-33.882;151.134;2023-04-25T10:20:09;18.70;99.90
16392;DHT22;8305;-33.882;151.134;2023-04-25T10:22:43;18.60;99.90
16392;DHT22;8305;-33.882;151.134;2023-04-25T10:25:15;18.70;99.90
16392;DHT22;8305;-33.882;151.134;2023-04-25T10:27:47;18.60;99.90
16392;DHT22;8305;-33.882;151.134;2023-04-25T10:30:22;18.60;99.90
16392;DHT22;8305;-33.882;151.134;2023-04-25T10:32:56;18.60;99.90
16392;DHT22;8305;-33.882;151.134;2023-04-25T10:35:29;18.50;99.90
16392;DHT22;8305;-33.882;151.134;2023-04-25T10:38:02;18.50;99.90
16392;DHT22;8305;-33.882;151.134;2023-04-25T10:40:34;18.50;99.90
16392;DHT22;8305;-33.882;151.134;2023-04-25T10:43:33;18.50;99.90
16392;DHT22;8305;-33.882;151.134;2023-04-25T10:46:18;18.50;99.90
16392;DHT22;8305;-33.882;151.134;2023-04-25T10:48:50;18.40;99.90
16392;DHT22;8305;-33.882;151.134;2023-04-25T10:51:23;18.30;99.90
16392;DHT22;8305;-33.882;151.134;2023-04-25T10:54:00;18.30;99.90
16392;DHT22;8305;-33.882;151.134;2023-04-25T10:56:33;18.30;99.90
16392;DHT22;8305;-33.882;151.134;2023-04-25T10:59:07;18.30;99.90
16392;DHT22;8305;-33.882;151.134;2023-04-25T11:01:47;18.30;99.90
16392;DHT22;8305;-33.882;151.134;2023-04-25T11:04:22;18.30;99.90
16392;DHT22;8305;-33.882;151.134;2023-04-25T11:07:04;18.30;99.90
16392;DHT22;8305;-33.882;151.134;2023-04-25T11:09:36;18.20;99.90
16392;DHT22;8305;-33.882;151.134;2023-04-25T11:12:09;18.20;99.90
16392;DHT22;8305;-33.882;151.134;2023-04-25T11:14:42;18.20;99.90
16392;DHT22;8305;-33.882;151.134;2023-04-25T11:17:18;18.20;99.90
16392;DHT22;8305;-33.882;151.134;2023-04-25T11:19:50;18.20;99.90
16392;DHT22;8305;-33.882;151.134;2023-04-25T11:22:22;18.20;99.90
16392;DHT22;8305;-33.882;151.134;2023-04-25T11:24:54;18.20;99.90
16392;DHT22;8305;-33.882;151.134;2023-04-25T11:27:26;18.20;99.90
16392;DHT22;8305;-33.882;151.134;2023-04-25T11:29:57;18.20;99.90
16392;DHT22;8305;-33.882;151.134;2023-04-25T11:32:30;18.30;99.90
16392;DHT22;8305;-33.882;151.134;2023-04-25T11:35:02;18.30;99.90
16392;DHT22;8305;-33.882;151.134;2023-04-25T11:37:33;18.30;99.90
16392;DHT22;8305;-33.882;151.134;2023-04-25T11:40:05;18.30;99.90
16392;DHT22;8305;-33.882;151.134;2023-04-25T11:42:38;18.30;99.90
16392;DHT22;8305;-33.882;151.134;2023-04-25T11:45:10;18.30;99.90
16392;DHT22;8305;-33.882;151.134;2023-04-25T11:47:43;18.30;99.90
16392;DHT22;8305;-33.882;151.134;2023-04-25T11:50:14;18.30;99.90
16392;DHT22;8305;-33.882;151.134;2023-04-25T11:52:46;18.30;99.90
16392;DHT22;8305;-33.882;151.134;2023-04-25T11:55:19;18.30;99.90
16392;DHT22;8305;-33.882;151.134;2023-04-25T11:57:51;18.20;99.90
16392;DHT22;8305;-33.882;151.134;2023-04-25T12:00:23;18.20;99.90
16392;DHT22;8305;-33.882;151.134;2023-04-25T12:02:57;18.20;99.90
16392;DHT22;8305;-33.882;151.134;2023-04-25T12:05:29;18.20;99.90
16392;DHT22;8305;-33.882;151.134;2023-04-25T12:08:11;18.20;99.90
16392;DHT22;8305;-33.882;151.134;2023-04-25T12:10:43;18.10;99.90
16392;DHT22;8305;-33.882;151.134;2023-04-25T12:13:23;18.10;99.90
16392;DHT22;8305;-33.882;151.134;2023-04-25T12:15:56;18.10;99.90
16392;DHT22;8305;-33.882;151.134;2023-04-25T12:18:29;18.10;99.90
16392;DHT22;8305;-33.882;151.134;2023-04-25T12:21:00;18.10;99.90
16392;DHT22;8305;-33.882;151.134;2023-04-25T12:23:32;18.10;99.90
16392;DHT22;8305;-33.882;151.134;2023-04-25T12:26:04;18.10;99.90
16392;DHT22;8305;-33.882;151.134;2023-04-25T12:28:35;18.10;99.90
16392;DHT22;8305;-33.882;151.134;2023-04-25T12:31:06;18.00;99.90
16392;DHT22;8305;-33.882;151.134;2023-04-25T12:33:39;18.00;99.90
16392;DHT22;8305;-33.882;151.134;2023-04-25T12:36:11;18.00;99.90
16392;DHT22;8305;-33.882;151.134;2023-04-25T12:38:44;18.00;99.90
16392;DHT22;8305;-33.882;151.134;2023-04-25T12:41:16;18.00;99.90
16392;DHT22;8305;-33.882;151.134;2023-04-25T12:43:47;17.90;99.90
16392;DHT22;8305;-33.882;151.134;2023-04-25T12:46:18;17.90;99.90
16392;DHT22;8305;-33.882;151.134;2023-04-25T12:48:51;17.90;99.90
16392;DHT22;8305;-33.882;151.134;2023-04-25T12:51:23;17.90;99.90
16392;DHT22;8305;-33.882;151.134;2023-04-25T12:53:55;17.90;99.90
16392;DHT22;8305;-33.882;151.134;2023-04-25T12:56:26;17.90;99.90
16392;DHT22;8305;-33.882;151.134;2023-04-25T12:58:57;17.90;99.90
16392;DHT22;8305;-33.882;151.134;2023-04-25T13:01:30;17.90;99.90
16392;DHT22;8305;-33.882;151.134;2023-04-25T13:04:03;17.90;99.90
16392;DHT22;8305;-33.882;151.134;2023-04-25T13:06:34;17.90;99.90
16392;DHT22;8305;-33.882;151.134;2023-04-25T13:09:05;18.00;99.90
16392;DHT22;8305;-33.882;151.134;2023-04-25T13:11:36;18.00;99.90
16392;DHT22;8305;-33.882;151.134;2023-04-25T13:14:08;17.90;99.90
16392;DHT22;8305;-33.882;151.134;2023-04-25T13:16:39;17.90;99.90
16392;DHT22;8305;-33.882;151.134;2023-04-25T13:19:12;17.90;99.90
16392;DHT22;8305;-33.882;151.134;2023-04-25T13:21:43;17.90;99.90
16392;DHT22;8305;-33.882;151.134;2023-04-25T13:24:14;17.90;99.90
16392;DHT22;8305;-33.882;151.134;2023-04-25T13:26:45;17.90;99.90
16392;DHT22;8305;-33.882;151.134;2023-04-25T13:29:16;17.80;99.90
16392;DHT22;8305;-33.882;151.134;2023-04-25T13:31:47;17.80;99.90
16392;DHT22;8305;-33.882;151.134;2023-04-25T13:34:20;17.80;99.90
16392;DHT22;8305;-33.882;151.134;2023-04-25T13:36:51;17.70;99.90
16392;DHT22;8305;-33.882;151.134;2023-04-25T13:39:23;17.70;99.90
16392;DHT22;8305;-33.882;151.134;2023-04-25T13:41:54;17.70;99.90
16392;DHT22;8305;-33.882;151.134;2023-04-25T13:44:25;17.70;99.90
16392;DHT22;8305;-33.882;151.134;2023-04-25T13:46:56;17.60;99.90
16392;DHT22;8305;-33.882;151.134;2023-04-25T13:49:30;17.60;99.90
16392;DHT22;8305;-33.882;151.134;2023-04-25T13:52:01;17.60;99.90
16392;DHT22;8305;-33.882;151.134;2023-04-25T13:54:32;17.60;99.90
16392;DHT22;8305;-33.882;151.134;2023-04-25T13:57:03;17.60;99.90
16392;DHT22;8305;-33.882;151.134;2023-04-25T13:59:34;17.50;99.90
16392;DHT22;8305;-33.882;151.134;2023-04-25T14:02:06;17.50;99.90
16392;DHT22;8305;-33.882;151.134;2023-04-25T14:04:39;17.50;99.90
16392;DHT22;8305;-33.882;151.134;2023-04-25T14:07:10;17.50;99.90
16392;DHT22;8305;-33.882;151.134;2023-04-25T14:09:41;17.40;99.90
16392;DHT22;8305;-33.882;151.134;2023-04-25T14:12:12;17.40;99.90
16392;DHT22;8305;-33.882;151.134;2023-04-25T14:14:43;17.40;99.90
16392;DHT22;8305;-33.882;151.134;2023-04-25T14:17:14;17.40;99.90
16392;DHT22;8305;-33.882;151.134;2023-04-25T14:19:47;17.40;99.90
16392;DHT22;8305;-33.882;151.134;2023-04-25T14:22:18;17.30;99.90
16392;DHT22;8305;-33.882;151.134;2023-04-25T14:24:49;17.30;99.90
16392;DHT22;8305;-33.882;151.134;2023-04-25T14:27:20;17.30;99.90
16392;DHT22;8305;-33.882;151.134;2023-04-25T14:29:51;17.30;99.90
16392;DHT22;8305;-33.882;151.134;2023-04-25T14:32:22;17.30;99.90
16392;DHT22;8305;-33.882;151.134;2023-04-25T14:34:55;17.30;99.90
16392;DHT22;8305;-33.882;151.134;2023-04-25T14:37:26;17.30;99.90
16392;DHT22;8305;-33.882;151.134;2023-04-25T14:39:57;17.20;99.90
16392;DHT22;8305;-33.882;151.134;2023-04-25T14:42:28;17.20;99.90
16392;DHT22;8305;-33.882;151.134;2023-04-25T14:44:59;17.30;99.90
16392;DHT22;8305;-33.882;151.134;2023-04-25T14:47:31;17.30;99.90
16392;DHT22;8305;-33.882;151.134;2023-04-25T14:50:04;17.20;99.90
16392;DHT22;8305;-33.882;151.134;2023-04-25T14:52:35;17.20;99.90
16392;DHT22;8305;-33.882;151.134;2023-04-25T14:55:06;17.20;99.90
16392;DHT22;8305;-33.882;151.134;2023-04-25T14:57:37;17.20;99.90
16392;DHT22;8305;-33.882;151.134;2023-04-25T15:00:09;17.10;99.90
16392;DHT22;8305;-33.882;151.134;2023-04-25T15:02:44;17.10;99.90
16392;DHT22;8305;-33.882;151.134;2023-04-25T15:05:17;17.00;99.90
16392;DHT22;8305;-33.882;151.134;2023-04-25T15:07:48;17.00;99.90
16392;DHT22;8305;-33.882;151.134;2023-04-25T15:10:19;16.90;99.90
16392;DHT22;8305;-33.882;151.134;2023-04-25T15:12:50;16.80;99.90
16392;DHT22;8305;-33.882;151.134;2023-04-25T15:15:22;16.70;99.90
16392;DHT22;8305;-33.882;151.134;2023-04-25T15:17:53;16.70;99.90
16392;DHT22;8305;-33.882;151.134;2023-04-25T15:20:26;16.60;99.90
16392;DHT22;8305;-33.882;151.134;2023-04-25T15:22:58;16.60;99.90
16392;DHT22;8305;-33.882;151.134;2023-04-25T15:25:31;16.60;99.90
16392;DHT22;8305;-33.882;151.134;2023-04-25T15:28:02;16.60;99.90
16392;DHT22;8305;-33.882;151.134;2023-04-25T15:30:33;16.60;99.90
16392;DHT22;8305;-33.882;151.134;2023-04-25T15:33:07;16.50;99.90